»·PEaware :: SWA343 KSNA-KOAK

SWA343 :: KSNA-KOAK

FLIGHT INFORMATION

Flight Status: Arrived
Operator:
Southwest Airlines
More flights by this operator :: More flights under this callsign
Pilot: Andrew C. (28419)
Aircraft: BOEING 737-800
(B738)
More flights by this aircraft type
Origin: KSNA John Wayne-Orange Co
United States
Destination: KOAK Metro Oakland Intl
United States
More flights between these airports :: More routes between these airports
Route: HHERO3 OROSZ COREZ RGOOD EMZOH3
File this flight plan on PilotEdge
Remarks: RMK / SIMBRIEF
Altitude:
(Current/Filed)
38,000ft
Speed:
(Current/Filed)
448kts
Departed: 01-Aug-20 02:38 PM
Arrived: 01-Aug-20 03:40 PM
Distance/Time
Traveled:
322nm/1:02
Distance/Time
To Go:
Arrived

Flight Plot

Page will automatically refresh every two minutes.


Map Options




Map Legend


Flown Route
Filed Route
Departure Airport
Arrival Airport
Navaid (VOR, NDB)
Fix

Horizontal Profiles

Position Reports

Time Latitude Longitude Heading Altitude Ground
Speed
01-Aug-20 14:08 33.677168 -117.863682 118 66ft 0kts
01-Aug-20 14:09 33.677168 -117.863682 118 66ft 0kts
01-Aug-20 14:10 33.677168 -117.863682 118 66ft 0kts
01-Aug-20 14:11 33.677169 -117.863682 118 66ft 0kts
01-Aug-20 14:12 33.677169 -117.863682 118 66ft 0kts
01-Aug-20 14:13 33.677169 -117.863682 118 66ft 0kts
01-Aug-20 14:14 33.677169 -117.863682 118 66ft 0kts
01-Aug-20 14:15 33.677169 -117.863682 118 66ft 0kts
01-Aug-20 14:16 33.677169 -117.863682 118 66ft 0kts
01-Aug-20 14:17 33.677169 -117.863682 118 66ft 0kts
01-Aug-20 14:18 33.677169 -117.863682 118 66ft 0kts
01-Aug-20 14:19 33.677169 -117.863682 118 66ft 0kts
01-Aug-20 14:20 33.677169 -117.863682 118 66ft 0kts
01-Aug-20 14:21 33.677169 -117.863682 118 66ft 0kts
01-Aug-20 14:22 33.677169 -117.863682 118 66ft 0kts
01-Aug-20 14:23 33.677169 -117.863682 118 66ft 0kts
01-Aug-20 14:24 33.677169 -117.863682 118 66ft 0kts
01-Aug-20 14:25 33.677169 -117.863683 118 66ft 0kts
01-Aug-20 14:26 33.677169 -117.863683 118 66ft 0kts
01-Aug-20 14:27 33.677169 -117.863683 118 66ft 0kts
01-Aug-20 14:28 33.677169 -117.863683 118 66ft 0kts
01-Aug-20 14:29 33.677254 -117.863870 118 66ft 1kts
01-Aug-20 14:30 33.677205 -117.864494 43 66ft 2kts
01-Aug-20 14:31 33.677065 -117.864607 27 66ft 0kts
01-Aug-20 14:32 33.677065 -117.864607 27 66ft 0kts
01-Aug-20 14:33 33.677407 -117.864400 26 66ft 3kts
01-Aug-20 14:34 33.679844 -117.862840 28 66ft 13kts
01-Aug-20 14:35 33.680634 -117.863034 300 66ft 0kts
01-Aug-20 14:36 33.681446 -117.865130 226 66ft 0kts
01-Aug-20 14:37 33.664451 -117.875903 206 789ft 152kts
01-Aug-20 14:38 33.609627 -117.894694 186 2609ft 258kts
01-Aug-20 14:39 33.543103 -117.930204 224 4983ft 272kts
01-Aug-20 14:40 33.489587 -117.992110 227 4998ft 268kts
01-Aug-20 14:41 33.448413 -118.067212 241 6738ft 270kts
01-Aug-20 14:42 33.416277 -118.148291 260 10147ft 278kts
01-Aug-20 14:43 33.429299 -118.249997 281 12286ft 332kts
01-Aug-20 14:44 33.463837 -118.356556 295 14037ft 357kts
01-Aug-20 14:45 33.518186 -118.455150 322 17130ft 371kts
01-Aug-20 14:46 33.619863 -118.474670 5 19768ft 390kts
01-Aug-20 14:47 33.729301 -118.460980 0 22158ft 403kts
01-Aug-20 14:48 33.842259 -118.459883 358 24303ft 414kts
01-Aug-20 14:49 33.958965 -118.460040 355 26230ft 425kts
01-Aug-20 14:50 34.072676 -118.495926 335 27978ft 429kts
01-Aug-20 14:51 34.179213 -118.562959 329 29565ft 437kts
01-Aug-20 14:52 34.285886 -118.633830 329 31240ft 439kts
01-Aug-20 14:53 34.392312 -118.704607 328 33051ft 435kts
01-Aug-20 14:54 34.497489 -118.774634 328 34716ft 431kts
01-Aug-20 14:55 34.601598 -118.844026 328 36263ft 426kts
01-Aug-20 14:56 34.704899 -118.912955 328 37543ft 424kts
01-Aug-20 14:57 34.808333 -118.982057 327 38033ft 424kts
01-Aug-20 14:58 34.910871 -119.050637 327 38012ft 419kts
01-Aug-20 14:59 35.013187 -119.119123 327 38009ft 421kts
01-Aug-20 15:00 35.115769 -119.187840 327 38009ft 420kts
01-Aug-20 15:01 35.217736 -119.256219 327 38009ft 420kts
01-Aug-20 15:02 35.320026 -119.324888 327 38009ft 420kts
01-Aug-20 15:03 35.422333 -119.393614 327 38014ft 419kts
01-Aug-20 15:04 35.524292 -119.462331 324 38025ft 418kts
01-Aug-20 15:05 35.616568 -119.546777 317 38027ft 413kts
01-Aug-20 15:06 35.705391 -119.636016 316 38027ft 412kts
01-Aug-20 15:07 35.793512 -119.725891 315 38027ft 411kts
01-Aug-20 15:08 35.881121 -119.815732 315 38027ft 412kts
01-Aug-20 15:09 35.964885 -119.910596 311 38027ft 409kts
01-Aug-20 15:10 36.046802 -120.007856 311 38027ft 409kts
01-Aug-20 15:11 36.128038 -120.104381 311 37840ft 411kts
01-Aug-20 15:12 36.210027 -120.202036 311 36841ft 407kts
01-Aug-20 15:13 36.291527 -120.299417 311 35721ft 412kts
01-Aug-20 15:14 36.374411 -120.398719 312 33425ft 410kts
01-Aug-20 15:15 36.454317 -120.494762 312 31557ft 393kts
01-Aug-20 15:16 36.531416 -120.587777 313 29743ft 380kts
01-Aug-20 15:17 36.608022 -120.674116 315 27984ft 370kts
01-Aug-20 15:18 36.683517 -120.757681 316 26246ft 360kts
01-Aug-20 15:19 36.760678 -120.843424 316 24981ft 405kts
01-Aug-20 15:20 36.843299 -120.935136 317 23510ft 387kts
01-Aug-20 15:21 36.922296 -121.022854 317 21415ft 375kts
01-Aug-20 15:22 36.999219 -121.108421 317 19344ft 365kts
01-Aug-20 15:23 37.073827 -121.191702 317 17300ft 356kts
01-Aug-20 15:24 37.146766 -121.273716 315 15254ft 348kts
01-Aug-20 15:25 37.216571 -121.355258 315 13204ft 341kts
01-Aug-20 15:26 37.285325 -121.435330 316 11155ft 333kts
01-Aug-20 15:27 37.349513 -121.510226 316 10220ft 296kts
01-Aug-20 15:28 37.408188 -121.578170 317 9000ft 284kts
01-Aug-20 15:29 37.460852 -121.650348 305 7578ft 280kts
01-Aug-20 15:30 37.504933 -121.728227 305 6937ft 264kts
01-Aug-20 15:31 37.536210 -121.811572 279 6905ft 263kts
01-Aug-20 15:32 37.546346 -121.901411 278 5711ft 260kts
01-Aug-20 15:33 37.556370 -121.987514 278 4419ft 234kts
01-Aug-20 15:34 37.588145 -122.047666 314 3411ft 183kts
01-Aug-20 15:35 37.620041 -122.092879 309 2527ft 168kts
01-Aug-20 15:36 37.649766 -122.137107 309 1626ft 161kts
01-Aug-20 15:37 37.674291 -122.173733 308 882ft 131kts
01-Aug-20 15:38 37.697989 -122.209024 307 181ft 133kts
01-Aug-20 15:39 37.711318 -122.229027 313 17ft 24kts
01-Aug-20 15:41 37.714841 -122.231101 64 17ft 9kts
01-Aug-20 15:42 37.712217 -122.224978 50 17ft 21kts
01-Aug-20 15:43 37.711285 -122.219520 129 17ft 18kts
01-Aug-20 15:44 37.709452 -122.215058 43 17ft 15kts
01-Aug-20 15:45 37.711632 -122.213781 27 17ft 0kts
01-Aug-20 15:46 37.711668 -122.213755 29 17ft 0kts
01-Aug-20 15:47 37.711668 -122.213755 29 17ft 0kts
01-Aug-20 15:48 37.711668 -122.213755 29 17ft 0kts
01-Aug-20 15:49 37.711668 -122.213755 29 17ft 0kts
01-Aug-20 15:50 37.711668 -122.213755 29 17ft 0kts
01-Aug-20 15:51 37.711668 -122.213755 29 17ft 0kts
01-Aug-20 15:52 37.711668 -122.213755 29 17ft 0kts
01-Aug-20 15:53 37.711668 -122.213755 29 17ft 0kts
01-Aug-20 15:54 37.711668 -122.213755 29 17ft 0kts

Navigation Log

Ident Type
Flight plan parsing failed, navigation log unavailable